RJCC/CTS METAR and TAF weather

Enter ICAO airport designator
Station Type Date Time Source
RJCC METAR 2021/03/09 09:30 UTC NOAA

RJCC 090930Z 15010KT 9999 FEW025 00/M02 Q1018 RMK 1CU025 A3007


Station Type Date Time Source
RJCC Decoded METAR 2021/03/09 09:30 UTC NOAA

Chitose Ab, Japan (RJCC) 42-48N 141-40E 30M
Mar 09, 2021 - 04:30 AM EST / 2021.03.09 0930 UTC
Wind: from the SSE (150 degrees) at 12 MPH (10 KT):0
Visibility: greater than 7 mile(s):0
Sky conditions: mostly clear
Temperature: 32 F (0 C)
Windchill: 23 F (-5 C):1
Dew Point: 28 F (-2 C)
Relative Humidity: 86%
Pressure (altimeter): 30.06 in. Hg (1018 hPa)
ob: RJCC 090930Z 15010KT 9999 FEW025 00/M02 Q1018 RMK 1CU025 A3007
cycle: 9

Station Type Date Time Source
RJCC TAF 2021/03/09 06:32 UTC NOAA

TAF RJCC 090505Z 0906/1012 16010KT 9999 FEW020 SCT040
BECMG 0918/0921 33018KT
TEMPO 0918/0921 3000 -SHSNRA FEW003 BKN006
TEMPO 1000/1009 33020G30KT

Example: see airport list